Latest Conditions
At L.F.Wade Int. Airport
Recorded at 2:55 am
Partly Cloudy
Temp.: 
25°C/77°F
Humidity: 
90%
Wind: 
SSW 5KT
or 6mph
UV Index: 
0
Island Observations
Observations
Friday, July 01, 2016

Observations are in local time and taken at least once an hour, or upon the start and end of specified events such as showers and thunderstorms.

Time Sky / Weather Wind Speed/Gusts Temp. R.H. Pressure
     knots (mph)  °C (°F)  %  mb / "Hg
 02:55 Partly Cloudy  SSW 5/0 (6/0) 25(77) 90 1024 / 30.23
 01:55 Partly Cloudy  S 5/0 (6/0) 25(77) 89 1024 / 30.25
 00:55 Partly Cloudy  S 5/0 (6/0) 25(78) 89 1024 / 30.25
 23:55 Mostly Cloudy  S 5/0 (6/0) 26(78) 88 1025 / 30.26
 22:55 Partly Cloudy  S 5/0 (6/0) 26(78) 88 1025 / 30.27
 21:55 Partly Cloudy  S 6/0 (7/0) 26(78) 87 1024 / 30.25
 20:55 Partly Cloudy  S 6/0 (7/0) 26(79) 86 1024 / 30.24
 19:55 Mostly Cloudy  S 7/0 (8/0) 27(80) 81 1023 / 30.22
 18:55 Mostly Cloudy  S 7/0 (8/0) 27(81) 80 1023 / 30.22
 17:55 Mostly Cloudy  SSW 7/0 (8/0) 28(82) 77 1023 / 30.21
 16:55 Mostly Cloudy  S 9/0 (10/0) 27(81) 78 1023 / 30.22
 15:55 Mostly Cloudy  SSW 9/0 (10/0) 28(82) 77 1023 / 30.21
 14:55 Mostly Cloudy  S 9/0 (10/0) 28(82) 79 1023 / 30.22
 13:55 Mostly Cloudy  S 9/0 (10/0) 28(82) 81 1024 / 30.23
 12:55 Mostly Cloudy  SSE 9/0 (10/0) 28(82) 81 1024 / 30.23
 11:55 Mostly Cloudy  SSE 11/0 (13/0) 27(81) 79 1024 / 30.23
 10:55 Mostly Cloudy Showers S 8/0 (9/0) 27(81) 82 1024 / 30.23
 09:55 Mostly Cloudy Showers S 8/0 (9/0) 27(80) 84 1023 / 30.22
 08:55 Mostly Cloudy  SSW 7/0 (8/0) 26(80) 88 1023 / 30.21
 07:55 Mostly Cloudy  SSW 6/0 (7/0) 26(78) 89 1023 / 30.21
 06:55 Mostly Cloudy  SW 6/0 (7/0) 25(78) 90 1023 / 30.20
 06:05 Mostly Cloudy Showers SSW 6/0 (7/0) 25(78) 90 1022 / 30.19
 05:55 Mostly Cloudy Showers S 8/0 (9/0) 25(78) 89 1022 / 30.18
 04:55 Mostly Cloudy  S 7/0 (8/0) 25(78) 90 1022 / 30.17
Observations from our AWOS sites are available here (password and username are both 'guest').